Aviation Digital Data Service (ADDS)

Output produced by METARs form (0243 UTC 24 July 2017)
found at http://www.aviationweather.gov/adds/metars/
 
FABL 240200Z AUTO 20002KT 9999 ///////// M04/M13 Q1028
TAF FABL 232200Z 2400/2424 15004KT CAVOK 
     BECMG 2408/2410 02007KT 
     BECMG 2416/2418 VRB03KT TX20/2413ZTNM01/2405Z
       
FACT 240230Z VRB01KT 8000 NSC 06/05 Q1021 NOSIG
TAF FACT 232200Z 2400/2506 VRB03KT CAVOK 
     PROB30 
     TEMPO 2400/2406 1500 MIFG NSC 
     FM241200 31008KT 9999 FEW025 
     FM241900 33012KT 9999 FEW010 BKN025 
     PROB30 
     TEMPO 2503/2506 4000 -RA BKN010 TX21/2412ZTN05/2406Z
       
TAF FAEL 240000Z 2403/2412 03012KT CAVOK TX23/2412ZTN11/2404Z
       
FAGG 240200Z AUTO 32003KT 300V010 9999 R29///// ////// 06/05 Q1022
TAF FAGG 232200Z 2400/2424 VRB03KT 9999 FEW030 
     BECMG 2400/2402 36008KT 
     BECMG 2412/2414 VRB04KT 
     FM242000 22005KT 9999 BKN012 
     PROB40 
     TEMPO 2422/2424 3000 BR BKN005 TX24/2412ZTN05/2406Z
       
FAHS 240000Z AUTO 20006KT //// // ////// 15/10 Q1026
FAKM 240200Z AUTO 00000KT //// // ////// 02/M15 Q1027
TAF FAKM 240000Z 2403/2412 04005KT CAVOK 
     BECMG 2410/2412 34005KT TX24/2412ZTNM02/2404Z
       
FALW 240200Z AUTO 22004KT //// // ////// 04/03 Q1021
FALA 240200Z AUTO 13005KT //// ////// 06/M06 Q1028
TAF FALA 232200Z 2400/2424 VRB04KT CAVOK 
     BECMG 2406/2408 06005KT 
     BECMG 2409/2411 34008KT 
     BECMG 2417/2419 VRB04KT TX24/2412ZTN04/2404Z
       
FAMM 240200Z AUTO 08004KT //// // ////// 07/M11 Q1026
FAOB 240200Z AUTO 06003KT //// // ////// 03/01 Q1021
FAPN 240200Z AUTO 06001KT //// // ////// 02/M06 Q1026
FAPE 240200Z 36005KT CAVOK 09/09 Q1025 NOSIG
TAF FAPE 232200Z 2400/2424 03005KT 9999 FEW006 
     PROB30 
     TEMPO 2400/2405 3500 BR BKN005 
     BECMG 2419/2421 32008KT 
     BECMG 2422/2424 25014KT TX21/2412ZTN08/2404Z
       
FASI 240200Z AUTO 18004KT //// // ////// 02/02 Q1032
FAUT 240200Z AUTO 27002KT //// // ////// 09/08 Q1028
FAUP 240200Z 00000KT CAVOK 04/M17 Q1024 NOSIG
TAF FAUP 232200Z 2400/2424 VRB03KT CAVOK 
     BECMG 2408/2410 01008KT TX26/2413ZTN01/2404Z
       
FAVV 240200Z AUTO /////KT //// // ////// 03/M04 Q1027
FAWK 240200Z AUTO 16002KT //// // ////// ///// Q1027
FAWB 240200Z AUTO 11002KT //// // ////// 08/01 Q1026